createdAt,value
2018-04-23T00:00:03.020Z,4
2018-04-23T00:05:03.463Z,4
2018-04-23T00:10:03.104Z,3
2018-04-23T00:15:02.635Z,4
2018-04-23T00:20:03.208Z,2
2018-04-23T00:25:02.870Z,2
2018-04-23T00:30:03.395Z,2
2018-04-23T00:35:03.046Z,3
2018-04-23T00:40:03.635Z,2
2018-04-23T00:45:03.104Z,0
2018-04-23T00:50:02.699Z,4
2018-04-23T00:55:03.331Z,4
2018-04-23T01:00:02.980Z,3
2018-04-23T01:05:03.541Z,3
2018-04-23T01:10:03.142Z,6
2018-04-23T01:15:02.630Z,5
2018-04-23T01:20:03.226Z,4
2018-04-23T01:25:02.800Z,6
2018-04-23T01:30:03.347Z,5
2018-04-23T01:35:02.913Z,3
2018-04-23T01:40:03.575Z,5
2018-04-23T01:45:03.199Z,3
2018-04-23T01:50:02.759Z,3
2018-04-23T01:55:03.456Z,1
2018-04-23T02:00:03.015Z,3
2018-04-23T02:05:02.628Z,5
2018-04-23T02:10:03.285Z,3
2018-04-23T02:15:02.839Z,3
2018-04-23T02:20:03.461Z,3
2018-04-23T02:25:02.866Z,3
2018-04-23T02:30:03.432Z,2
2018-04-23T02:35:02.989Z,3
2018-04-23T02:40:03.623Z,3
2018-04-23T02:45:03.111Z,3
2018-04-23T02:50:02.730Z,3
2018-04-23T02:55:03.250Z,3
2018-04-23T03:00:02.813Z,1
2018-04-23T03:05:03.339Z,3
2018-04-23T03:10:03.063Z,3
2018-04-23T03:15:03.803Z,3
2018-04-23T03:20:03.341Z,5
2018-04-23T03:25:03.105Z,4
2018-04-23T03:30:02.719Z,4
2018-04-23T03:35:03.245Z,5
2018-04-23T03:40:02.868Z,5
2018-04-23T03:45:03.411Z,6
2018-04-23T03:50:02.973Z,5
2018-04-23T03:55:03.505Z,3
2018-04-23T04:00:02.972Z,3
2018-04-23T04:05:03.429Z,0
2018-04-23T04:10:02.837Z,0
2018-04-23T04:15:03.312Z,3
2018-04-23T04:20:02.929Z,0
2018-04-23T04:25:03.497Z,2
2018-04-23T04:30:03.341Z,3
2018-04-23T04:35:02.875Z,5
2018-04-23T04:40:03.688Z,4
2018-04-23T04:45:03.321Z,2
2018-04-23T04:50:02.872Z,5
2018-04-23T04:55:03.458Z,3
2018-04-23T05:00:03.033Z,5
2018-04-23T05:05:03.565Z,3
2018-04-23T05:10:03.292Z,2
2018-04-23T05:15:02.819Z,4
2018-04-23T05:20:03.531Z,4
2018-04-23T05:25:03.155Z,6
2018-04-23T05:30:03.096Z,4
2018-04-23T05:35:02.998Z,8
2018-04-23T05:40:03.735Z,4
2018-04-23T05:45:03.343Z,5
2018-04-23T05:50:03.163Z,2
2018-04-23T05:55:02.881Z,5
2018-04-23T06:00:02.792Z,5
2018-04-23T06:05:03.361Z,3
2018-04-23T06:10:03.014Z,6
2018-04-23T06:15:03.614Z,3
2018-04-23T06:20:03.215Z,5
2018-04-23T06:25:02.754Z,5
2018-04-23T06:30:03.339Z,4
2018-04-23T06:35:02.974Z,7
2018-04-23T06:40:02.634Z,2
2018-04-23T06:45:03.180Z,6
2018-04-23T06:50:02.702Z,6
2018-04-23T06:55:03.380Z,5
2018-04-23T07:00:03.233Z,6
2018-04-23T07:05:03.305Z,5
2018-04-23T07:10:03.275Z,5
2018-04-23T07:15:02.827Z,8
2018-04-23T07:20:03.322Z,6
2018-04-23T07:25:02.782Z,6
2018-04-23T07:30:03.497Z,7
2018-04-23T07:35:03.052Z,8
2018-04-23T07:40:02.668Z,6
2018-04-23T07:45:03.710Z,4
2018-04-23T07:50:03.219Z,4
2018-04-23T07:55:02.879Z,5
2018-04-23T08:00:03.714Z,2
2018-04-23T08:05:03.424Z,7
2018-04-23T08:10:03.179Z,5
2018-04-23T08:15:02.764Z,4
2018-04-23T08:20:03.452Z,2
2018-04-23T08:25:03.000Z,2
2018-04-23T08:30:03.503Z,3
2018-04-23T08:35:03.074Z,3
2018-04-23T08:40:02.730Z,3
2018-04-23T08:45:03.325Z,3
2018-04-23T08:50:03.379Z,3
2018-04-23T08:55:02.947Z,3
2018-04-23T09:00:03.709Z,5
2018-04-23T09:05:02.674Z,4
2018-04-23T09:10:03.427Z,5
2018-04-23T09:15:02.896Z,2
2018-04-23T09:20:03.429Z,5
2018-04-23T09:25:02.933Z,4
2018-04-23T09:30:03.562Z,7
2018-04-23T09:35:03.098Z,4
2018-04-23T09:40:02.744Z,4
2018-04-23T09:45:03.326Z,4
2018-04-23T09:50:03.020Z,4
2018-04-23T09:55:03.609Z,6
2018-04-23T10:00:03.180Z,6
2018-04-23T10:05:02.789Z,6
2018-04-23T10:10:03.520Z,8
2018-04-23T10:15:03.098Z,6
2018-04-23T10:20:02.697Z,5
2018-04-23T10:25:03.336Z,1
2018-04-23T10:30:02.905Z,3
2018-04-23T10:35:03.585Z,6
2018-04-23T10:40:03.284Z,4
2018-04-23T10:45:02.932Z,7
2018-04-23T10:50:03.543Z,4
2018-04-23T10:55:03.058Z,8
2018-04-23T11:00:03.651Z,7
2018-04-23T11:05:03.277Z,5
2018-04-23T11:10:02.820Z,5
2018-04-23T11:15:03.369Z,5
2018-04-23T11:20:03.033Z,6
2018-04-23T11:25:02.688Z,4
2018-04-23T11:30:03.180Z,4
2018-04-23T11:35:02.828Z,9
2018-04-23T11:40:03.436Z,6
2018-04-23T11:45:03.012Z,8
2018-04-23T11:50:02.627Z,4
2018-04-23T11:55:03.266Z,6
2018-04-23T12:00:02.911Z,3
2018-04-23T12:05:03.565Z,10
2018-04-23T12:10:03.276Z,5
2018-04-23T12:15:02.928Z,3
2018-04-23T12:20:03.581Z,4
2018-04-23T12:25:03.127Z,4
2018-04-23T12:30:02.705Z,2
2018-04-23T12:35:03.385Z,7
2018-04-23T12:40:02.998Z,4
2018-04-23T12:45:03.581Z,5
2018-04-23T12:50:03.162Z,6
2018-04-23T12:55:02.838Z,8
2018-04-23T13:00:03.421Z,6
2018-04-23T13:05:02.861Z,5
2018-04-23T13:10:03.672Z,7
2018-04-23T13:15:03.263Z,3
2018-04-23T13:20:03.046Z,6
2018-04-23T13:25:03.575Z,4
2018-04-23T13:30:03.326Z,3
2018-04-23T13:35:03.023Z,7
2018-04-23T13:45:03.146Z,5
2018-04-23T13:50:02.714Z,4
2018-04-23T13:55:03.379Z,5
2018-04-23T14:00:02.929Z,4
2018-04-23T14:05:03.490Z,5
2018-04-23T14:10:03.251Z,7
2018-04-23T14:15:02.739Z,5
2018-04-23T14:20:03.331Z,4
2018-04-23T14:25:02.816Z,4
2018-04-23T14:30:03.364Z,8
2018-04-23T14:35:02.956Z,10
2018-04-23T14:40:03.652Z,10
2018-04-23T14:45:03.245Z,6
2018-04-23T14:50:03.118Z,4
2018-04-23T14:55:02.785Z,4
2018-04-23T15:00:03.300Z,6
2018-04-23T15:05:02.957Z,6
2018-04-23T15:10:03.556Z,7
2018-04-23T15:15:03.019Z,7
2018-04-23T15:20:03.833Z,5
2018-04-23T15:25:03.373Z,7
2018-04-23T15:30:02.970Z,8
2018-04-23T15:35:03.778Z,6
2018-04-23T15:40:03.406Z,5
2018-04-23T15:45:03.050Z,5
2018-04-23T15:50:02.650Z,6
2018-04-23T15:55:03.171Z,5
2018-04-23T16:00:02.799Z,6
2018-04-23T16:05:03.394Z,7
2018-04-23T16:10:02.978Z,4
2018-04-23T16:15:03.527Z,7
2018-04-23T16:20:03.199Z,4
2018-04-23T16:25:02.863Z,7
2018-04-23T16:30:03.746Z,7
2018-04-23T16:35:03.451Z,6
2018-04-23T16:40:03.026Z,6
2018-04-23T16:45:03.566Z,5
2018-04-23T16:50:03.451Z,6
2018-04-23T16:55:03.176Z,5
2018-04-23T17:00:02.753Z,4
2018-04-23T17:05:03.394Z,4
2018-04-23T17:10:02.951Z,1
2018-04-23T17:15:03.563Z,5
2018-04-23T17:20:03.210Z,7
2018-04-23T17:25:02.738Z,3
2018-04-23T17:30:03.358Z,6
2018-04-23T17:35:02.899Z,4
2018-04-23T17:40:03.500Z,2
2018-04-23T17:45:03.098Z,1
2018-04-23T17:50:02.663Z,2
2018-04-23T17:55:03.373Z,3
2018-04-23T18:00:02.928Z,3
2018-04-23T18:05:03.513Z,2
2018-04-23T18:10:03.079Z,2
2018-04-23T18:15:02.726Z,2
2018-04-23T18:20:03.279Z,2
2018-04-23T18:25:02.810Z,1
2018-04-23T18:30:03.466Z,0
2018-04-23T18:35:03.191Z,0
2018-04-23T18:40:02.770Z,0
2018-04-23T18:45:03.420Z,0
2018-04-23T18:50:03.048Z,0
2018-04-23T18:55:03.687Z,0
2018-04-23T19:00:03.230Z,0
2018-04-23T19:05:02.952Z,0
2018-04-23T19:10:03.602Z,0
2018-04-23T19:15:03.146Z,0
2018-04-23T19:20:02.752Z,0
2018-04-23T19:25:03.313Z,0
2018-04-23T19:30:02.865Z,0
2018-04-23T19:35:03.491Z,0
2018-04-23T19:40:03.123Z,0
2018-04-23T19:45:02.846Z,0
2018-04-23T19:50:03.426Z,0
2018-04-23T19:55:03.017Z,0
2018-04-23T20:00:03.652Z,0
2018-04-23T20:05:03.263Z,0
2018-04-23T20:10:02.807Z,0
2018-04-23T20:15:03.334Z,0
2018-04-23T20:20:03.007Z,0
2018-04-23T20:25:03.566Z,1
2018-04-23T20:30:03.104Z,0
2018-04-23T20:35:02.660Z,0
2018-04-23T20:40:03.293Z,0
2018-04-23T20:45:02.890Z,0
2018-04-23T20:50:03.536Z,0
2018-04-23T20:55:03.051Z,0
2018-04-23T21:00:02.681Z,0
2018-04-23T21:05:03.398Z,0
2018-04-23T21:10:02.953Z,0
2018-04-23T21:15:03.622Z,2
2018-04-23T21:20:03.215Z,1
2018-04-23T21:25:02.818Z,0
2018-04-23T21:30:03.403Z,0
2018-04-23T21:35:02.987Z,1
2018-04-23T21:40:03.680Z,1
2018-04-23T21:45:03.167Z,2
2018-04-23T21:50:02.703Z,2
2018-04-23T21:55:03.317Z,0
2018-04-23T22:00:02.903Z,2
2018-04-23T22:05:03.536Z,2
2018-04-23T22:10:03.153Z,2
2018-04-23T22:15:02.661Z,3
2018-04-23T22:20:03.351Z,3
2018-04-23T22:25:02.729Z,2
2018-04-23T22:30:03.301Z,1
2018-04-23T22:35:02.886Z,1
2018-04-23T22:40:03.475Z,2
2018-04-23T22:45:02.975Z,2
2018-04-23T22:50:02.634Z,2
2018-04-23T22:55:03.408Z,0
2018-04-23T23:00:05.457Z,0
2018-04-23T23:05:03.201Z,2
2018-04-23T23:10:03.261Z,2
2018-04-23T23:15:03.233Z,3
2018-04-23T23:20:03.317Z,4
2018-04-23T23:25:03.339Z,3
2018-04-23T23:30:03.504Z,6
2018-04-23T23:35:02.725Z,4
2018-04-23T23:40:02.964Z,3
2018-04-23T23:45:03.170Z,3
2018-04-23T23:50:03.212Z,3
2018-04-23T23:55:03.255Z,2
